Dayton, OH (45400)

7:19 AM EDT on July 30, 2016 (GMT -0400)
Oregon Historic District | | Change Station
Active Advisory: Special Statement

Elev 745 ft 39.75 °N, 84.18 °W | Updated 21 seconds ago

Mostly Cloudy
Mostly Cloudy
70.7 °F
Feels Like 70.7 °F
N
0.0
Wind Variable Wind from South
Gusts 0.0 mph

Today
High -- | Low -- °F
--% Chance of Precip.
Yesterday
High -- | Low -- °F
Precip. -- in
Pressure 29.94 in
Visibility 3.0 miles
Clouds Mostly Cloudy 700 ft
Mostly Cloudy 16000 ft
Dew Point 70 °F
Humidity 97%
Rainfall 0.00 in
Snow Depth Not available.
6:34 AM 8:51 PM
Waning Crescent, 14% visible
METAR KFFO 301058Z 20001KT 3SM BR BKN007 BKN160 21/21 A2994 RMK AO2A SLP137 T02070207
Pressure 29.94 in
Visibility 3.0 miles
Clouds Mostly Cloudy 700 ft
Mostly Cloudy 16000 ft
Dew Point 70 °F
Humidity 97%
Rainfall 0.00 in
Snow Depth Not available.
6:34 AM 8:51 PM
Waning Crescent, 14% visible
METAR KFFO 301058Z 20001KT 3SM BR BKN007 BKN160 21/21 A2994 RMK AO2A SLP137 T02070207

10-Day Weather Forecast

Almanac

Astronomy

Jul. 30, 2016 Rise Set
Actual Time
Civil Twilight
Nautical Twilight
Astronomical Twilight
Moon
Length of Visible Light
Length of Day
Tomorrow will be .
, % of the Moon is Illuminated

Today's Extremes

State Highs State Lows

Community

WunderPhotos

Upload Photos

1,928,530 photos uploaded!

WunderBlog® & News

Nearby

Air Quality

  Air Quality AQ Index Pollutant
Not available.

Snow Depth

Station Depth Elevation

Earthquake Activity

City Distance Mag. Time & Date
Minimum magnitude displayed is 2.5.

Coastal Water Temperatures

Place Temperature

Stations

Nearby Weather Stations

Station Location Temp. Windchill Dew Point Humidity Wind Precip. Elev Updated Type
                   

Watches & Warnings

Special Statement
Issued: 3:53 AM EDT Jul. 30, 2016 – National Weather Service

... Patchy dense fog expected this morning...

Areas of fog will persist through mid morning. Some of the fog
will be locally dense... reducing visibilities to below a quarter
of a mile at times.

If traveling this morning, slow down and use extra caution if you
encounter reduced visibilities.


353 am EDT Sat Jul 30 2016

... Patchy dense fog expected this morning...

Areas of fog will persist through mid morning. Some of the fog
will be locally dense... reducing visibilities to below a quarter
of a mile at times.

If traveling this morning, slow down and use extra caution if you
encounter reduced visibilities.